Time;durP1;ratioP1;P1;durP2;ratioP2;P2;SDS_P1;SDS_P2;PMS_P1;PMS_P2;Temp;Humidity;BMP_temperature;BMP_pressure;BME280_temperature;BME280_humidity;BME280_pressure;Samples;Min_cycle;Max_cycle;Signal;HPM_P1;HPM_P2
2022/10/23 00:01:51;;;;;;;;;0.33;0.33;;;;;21.54;63.35;-19781.84;4994736;27;45407;-74
2022/10/23 00:04:19;;;;;;;;;4.00;4.00;;;;;21.36;63.36;-19777.06;4991368;27;45500;-74
2022/10/23 00:06:46;;;;;;;;;3.00;3.00;;;;;21.54;63.61;-19781.72;5002039;27;45384;-74
2022/10/23 00:09:15;;;;;;;;;4.33;2.00;;;;;21.58;63.21;-19782.78;4997076;27;46212;-74
2022/10/23 00:11:43;;;;;;;;;2.33;2.00;;;;;21.58;63.73;-19782.78;4997968;27;45560;-74
2022/10/23 00:14:09;;;;;;;;;4.33;2.00;;;;;21.57;63.29;-19782.66;5002194;27;45499;-74
2022/10/23 00:16:35;;;;;;;;;3.00;3.00;;;;;21.56;63.28;-19782.38;5003126;27;45477;-74
2022/10/23 00:19:01;;;;;;;;;3.00;3.00;;;;;21.47;63.61;-19780.13;4996129;27;45969;-75
2022/10/23 00:21:26;;;;;;;;;3.67;2.00;;;;;21.55;63.56;-19782.13;5001929;27;45327;-75
2022/10/23 00:23:52;;;;;;;;;3.00;3.00;;;;;21.53;63.42;-19781.59;4997125;27;45437;-74
2022/10/23 00:26:17;;;;;;;;;2.00;2.00;;;;;21.48;63.85;-19780.25;4995709;27;45556;-75
2022/10/23 00:28:45;;;;;;;;;5.00;3.00;;;;;21.44;63.63;-19779.19;5001380;28;46043;-74
2022/10/23 00:31:11;;;;;;;;;4.67;4.67;;;;;21.29;64.16;-19775.47;4993610;27;45291;-75
2022/10/23 00:33:36;;;;;;;;;3.67;3.00;;;;;21.28;64.69;-19775.06;5002190;28;45380;-75
2022/10/23 00:36:07;;;;;;;;;3.00;3.00;;;;;21.22;64.35;-19773.59;4994300;27;45496;-74
2022/10/23 00:38:33;;;;;;;;;4.33;3.33;;;;;21.20;65.00;-19773.06;4992980;27;46888;-74
2022/10/23 00:40:58;;;;;;;;;3.00;3.00;;;;;21.19;64.50;-19772.81;5005941;27;45401;-74
2022/10/23 00:43:27;;;;;;;;;3.33;3.33;;;;;21.18;64.62;-19772.53;4993137;27;45440;-74
2022/10/23 00:45:52;;;;;;;;;3.67;2.67;;;;;21.17;64.52;-19772.13;5001487;27;45504;-74
2022/10/23 00:48:19;;;;;;;;;2.00;2.00;;;;;21.06;64.72;-19769.47;5003666;27;45484;-74
2022/10/23 00:50:46;;;;;;;;;3.00;2.50;;;;;21.10;65.08;-19770.28;4998984;27;45365;-74
2022/10/23 00:53:13;;;;;;;;;2.00;2.00;;;;;21.09;65.28;-19770.13;4999119;28;45397;-74
2022/10/23 00:55:45;;;;;;;;;1.00;1.00;;;;;21.08;65.34;-19770.00;4995028;27;45531;-74
2022/10/23 00:58:14;;;;;;;;;2.00;2.00;;;;;21.06;64.97;-19769.34;4995663;28;46186;-74
2022/10/23 01:00:54;;;;;;;;;1.67;1.67;;;;;21.03;65.34;-19768.66;4994158;27;45508;-75
2022/10/23 01:03:24;;;;;;;;;5.00;3.00;;;;;21.04;65.52;-19768.81;4999540;28;45697;-74
2022/10/23 01:06:30;;;;;;;;;2.00;2.00;;;;;21.00;65.14;-19767.88;4994528;27;45446;-74
2022/10/23 01:09:07;;;;;;;;;3.00;1.33;;;;;20.99;65.40;-19767.47;4904629;28;46649;-74
2022/10/23 01:11:56;;;;;;;;;1.00;1.00;;;;;20.99;65.41;-19767.59;4900346;28;45481;-74
2022/10/23 01:14:42;;;;;;;;;2.50;2.00;;;;;20.99;65.38;-19767.59;4893075;28;45606;-74
2022/10/23 01:17:07;;;;;;;;;2.00;2.00;;;;;21.17;64.91;-19772.13;4894406;28;45565;-74
2022/10/23 01:19:54;;;;;;;;;2.00;1.00;;;;;20.97;64.85;-19767.06;4896494;28;46185;-74
2022/10/23 01:22:45;;;;;;;;;3.00;2.00;;;;;21.22;64.62;-19773.47;4881079;28;45479;-74
2022/10/23 01:25:25;;;;;;;;;3.00;2.00;;;;;21.22;64.79;-19773.59;4897881;28;45948;-74
2022/10/23 01:27:58;;;;;;;;;3.67;3.67;;;;;21.23;64.41;-19773.72;4899050;28;45575;-74
2022/10/23 01:30:23;;;;;;;;;2.00;2.00;;;;;21.15;65.07;-19771.59;4894931;28;46535;-74
2022/10/23 01:32:57;;;;;;;;;4.67;3.67;;;;;21.10;64.56;-19770.41;4896521;28;45407;-74
2022/10/23 01:35:36;;;;;;;;;3.00;3.00;;;;;20.98;65.13;-19767.34;4900877;28;45504;-74
2022/10/23 01:38:11;;;;;;;;;3.00;2.33;;;;;20.86;65.60;-19764.13;4901031;28;45412;-74
2022/10/23 01:41:01;;;;;;;;;3.33;3.33;;;;;20.84;65.73;-19763.63;4941463;28;46142;-74
2022/10/23 01:43:37;;;;;;;;;2.67;2.67;;;;;20.87;65.72;-19764.41;4903462;28;45559;-74
2022/10/23 01:46:09;;;;;;;;;1.00;1.00;;;;;20.64;65.76;-19758.53;4992167;28;45397;-75
2022/10/23 01:48:36;;;;;;;;;3.33;2.00;;;;;20.89;65.33;-19764.94;4990837;27;46849;-74
2022/10/23 01:51:04;;;;;;;;;1.33;1.33;;;;;20.84;65.21;-19763.63;4978485;28;46971;-74
2022/10/23 01:53:35;;;;;;;;;4.00;2.00;;;;;20.79;65.02;-19762.28;4992335;28;45539;-74
2022/10/23 01:56:04;;;;;;;;;1.67;1.67;;;;;20.85;65.46;-19763.88;5001261;27;45555;-74
2022/10/23 01:58:31;;;;;;;;;4.67;3.00;;;;;20.85;65.48;-19764.00;4994272;28;45433;-73
2022/10/23 02:01:01;;;;;;;;;2.00;2.00;;;;;20.82;65.20;-19763.06;4994954;27;46503;-79
2022/10/23 02:03:32;;;;;;;;;1.00;1.00;;;;;20.85;64.78;-19764.00;4980724;28;46374;-75
2022/10/23 02:05:57;;;;;;;;;2.00;1.00;;;;;20.86;65.13;-19764.13;4998363;27;45458;-76
2022/10/23 02:08:24;;;;;;;;;1.00;1.00;;;;;20.57;64.62;-19756.53;4992963;28;45778;-76
2022/10/23 02:11:12;;;;;;;;;2.00;1.00;;;;;20.45;64.43;-19753.47;4991247;27;47222;-75
2022/10/23 02:13:54;;;;;;;;;1.00;1.00;;;;;20.80;64.85;-19762.53;4975960;28;45371;-75
2022/10/23 02:16:36;;;;;;;;;2.00;2.00;;;;;20.77;64.72;-19761.88;4992422;28;45412;-76
2022/10/23 02:19:29;;;;;;;;;1.67;1.67;;;;;20.77;64.60;-19761.75;4995798;27;45405;-76
2022/10/23 02:22:17;;;;;;;;;1.00;1.00;;;;;20.78;64.57;-19762.16;4999553;27;46677;-75
2022/10/23 02:24:53;;;;;;;;;1.33;1.33;;;;;20.78;65.01;-19762.00;5001996;27;45390;-76
2022/10/23 02:27:34;;;;;;;;;1.00;1.00;;;;;20.52;64.57;-19755.34;4988765;27;45440;-76
2022/10/23 02:30:06;;;;;;;;;1.00;1.00;;;;;20.97;64.67;-19766.94;5019050;27;45441;-75
2022/10/23 02:32:34;;;;;;;;;2.67;2.67;;;;;21.00;64.02;-19767.75;5004228;27;46422;-75
2022/10/23 02:34:59;;;;;;;;;2.00;2.00;;;;;20.98;64.02;-19767.22;4995873;27;45546;-75
2022/10/23 02:37:25;;;;;;;;;2.00;2.00;;;;;21.02;64.50;-19768.28;4996925;27;46404;-75
2022/10/23 02:39:51;;;;;;;;;1.00;1.00;;;;;20.96;64.25;-19766.81;5000047;27;46739;-75
2022/10/23 02:42:22;;;;;;;;;2.33;2.00;;;;;20.86;64.17;-19764.28;5005152;27;45491;-76
2022/10/23 02:45:08;;;;;;;;;1.00;1.00;;;;;20.80;64.85;-19762.53;4994282;27;45455;-75
2022/10/23 02:47:56;;;;;;;;;2.00;2.00;;;;;20.59;65.37;-19757.22;4995066;27;45467;-75
2022/10/23 02:50:46;;;;;;;;;1.67;1.67;;;;;20.75;65.41;-19761.34;4996405;27;45428;-74
2022/10/23 02:53:29;;;;;;;;;1.33;1.33;;;;;20.94;64.51;-19766.28;4994412;27;46293;-75
2022/10/23 02:55:57;;;;;;;;;1.67;1.67;;;;;20.96;64.44;-19766.69;4998642;27;45276;-74
2022/10/23 02:58:36;;;;;;;;;3.33;1.67;;;;;20.96;64.89;-19766.81;4995436;27;45389;-74
2022/10/23 03:01:08;;;;;;;;;1.00;1.00;;;;;20.94;64.92;-19766.28;4994452;28;45583;-75
2022/10/23 03:03:58;;;;;;;;;2.00;2.00;;;;;20.96;64.93;-19766.69;4993760;27;45570;-72
2022/10/23 03:06:24;;;;;;;;;0.00;0.00;;;;;20.92;64.77;-19765.75;4995737;27;45346;-72
2022/10/23 03:08:57;;;;;;;;;1.00;1.00;;;;;20.95;64.51;-19766.53;4994895;27;45446;-72
2022/10/23 03:11:22;;;;;;;;;1.00;1.00;;;;;20.91;65.09;-19765.34;4995939;27;45404;-72
2022/10/23 03:13:48;;;;;;;;;3.00;2.00;;;;;20.94;65.21;-19766.28;4981365;27;45598;-72
2022/10/23 03:16:13;;;;;;;;;3.33;2.00;;;;;20.93;65.30;-19766.00;4995249;27;45393;-71
2022/10/23 03:18:39;;;;;;;;;2.00;2.00;;;;;20.92;64.91;-19765.75;4978137;28;45370;-72
2022/10/23 03:21:04;;;;;;;;;3.33;2.00;;;;;20.92;64.90;-19765.59;4997927;27;45266;-72
2022/10/23 03:23:29;;;;;;;;;1.00;1.00;;;;;20.93;65.05;-19766.00;4994613;27;45376;-71
2022/10/23 03:25:55;;;;;;;;;4.67;1.33;;;;;20.94;65.51;-19766.28;4995025;27;45335;-72
2022/10/23 03:28:20;;;;;;;;;1.00;1.00;;;;;20.82;65.36;-19763.22;4995071;28;46208;-71
2022/10/23 03:30:46;;;;;;;;;0.33;0.33;;;;;20.87;65.12;-19764.53;5064466;27;45500;-71
2022/10/23 03:33:11;;;;;;;;;1.33;1.33;;;;;20.90;65.53;-19765.22;4995192;27;45469;-71
2022/10/23 03:35:37;;;;;;;;;1.00;1.00;;;;;20.67;65.85;-19759.22;4994920;27;45456;-71
2022/10/23 03:38:02;;;;;;;;;1.00;1.00;;;;;20.85;66.04;-19764.00;4994620;28;45455;-71
2022/10/23 03:40:27;;;;;;;;;4.33;3.00;;;;;20.88;65.33;-19764.69;4994757;27;45402;-71
2022/10/23 03:42:53;;;;;;;;;1.00;1.00;;;;;20.83;65.42;-19763.47;4995021;27;46099;-71
2022/10/23 03:45:19;;;;;;;;;3.00;1.33;;;;;20.89;65.65;-19764.81;4995034;27;45483;-71
2022/10/23 03:47:44;;;;;;;;;2.67;1.67;;;;;20.82;65.84;-19763.06;4980559;27;45417;-72
2022/10/23 03:50:10;;;;;;;;;2.00;2.00;;;;;20.78;65.50;-19762.16;5000099;27;45479;-72
2022/10/23 03:52:36;;;;;;;;;1.00;1.00;;;;;20.78;65.71;-19762.00;5001087;27;45359;-71
2022/10/23 03:55:02;;;;;;;;;2.00;2.00;;;;;20.76;65.98;-19761.47;4992920;27;45373;-71
2022/10/23 03:57:28;;;;;;;;;1.33;1.33;;;;;20.71;65.95;-19760.28;4994952;28;45452;-71
2022/10/23 03:59:53;;;;;;;;;1.00;1.00;;;;;20.82;66.18;-19763.22;4995147;27;45374;-71
2022/10/23 04:02:18;;;;;;;;;4.00;1.00;;;;;20.76;66.24;-19761.59;4993774;27;45609;-71
2022/10/23 04:04:44;;;;;;;;;3.33;2.00;;;;;20.73;66.10;-19760.69;4998290;27;45290;-72
2022/10/23 04:07:09;;;;;;;;;1.00;1.00;;;;;20.78;66.04;-19762.16;4994059;27;45412;-71
2022/10/23 04:09:35;;;;;;;;;3.00;3.00;;;;;20.76;66.37;-19761.47;4995009;28;45298;-71
2022/10/23 04:12:00;;;;;;;;;2.00;2.00;;;;;20.74;66.32;-19761.06;4994494;27;45916;-71
2022/10/23 04:14:26;;;;;;;;;2.00;2.00;;;;;20.76;66.38;-19761.47;4994796;27;45374;-71
2022/10/23 04:16:51;;;;;;;;;1.67;1.67;;;;;20.18;66.12;-19746.41;4977044;27;45321;-72
2022/10/23 04:19:17;;;;;;;;;2.00;2.00;;;;;20.68;66.78;-19759.34;4995897;27;45458;-71
2022/10/23 04:21:43;;;;;;;;;3.00;3.00;;;;;20.59;66.49;-19757.09;4996678;27;47030;-71
2022/10/23 04:24:09;;;;;;;;;1.00;1.00;;;;;20.66;66.43;-19758.94;4975799;28;46326;-71
2022/10/23 04:26:34;;;;;;;;;2.33;2.33;;;;;20.64;66.97;-19758.41;4994381;27;45565;-71
2022/10/23 04:28:59;;;;;;;;;4.00;3.00;;;;;20.60;67.12;-19757.34;4994046;27;45385;-71
2022/10/23 04:31:25;;;;;;;;;2.00;2.00;;;;;20.61;67.21;-19757.75;4994548;28;46546;-71
2022/10/23 04:33:50;;;;;;;;;3.33;1.67;;;;;20.59;67.33;-19757.22;4992329;27;45459;-72
2022/10/23 04:36:15;;;;;;;;;2.00;2.00;;;;;20.58;67.55;-19756.94;4996135;27;45506;-71
2022/10/23 04:38:41;;;;;;;;;2.00;2.00;;;;;20.53;68.02;-19755.59;4994721;27;45383;-71
2022/10/23 04:41:06;;;;;;;;;4.00;3.00;;;;;20.20;68.64;-19747.06;4991523;27;45423;-71
2022/10/23 04:43:32;;;;;;;;;2.00;2.00;;;;;20.44;68.53;-19753.34;4993825;27;45475;-71
2022/10/23 04:45:57;;;;;;;;;3.33;3.00;;;;;20.39;69.16;-19751.88;4993531;27;45393;-71
2022/10/23 04:48:22;;;;;;;;;2.00;2.00;;;;;20.47;68.93;-19753.88;4975376;28;45451;-71
2022/10/23 04:50:59;;;;;;;;;1.00;1.00;;;;;20.45;69.70;-19753.47;4997429;27;46011;-71
2022/10/23 04:53:25;;;;;;;;;2.33;1.00;;;;;20.45;69.32;-19753.47;4991818;28;45386;-71
2022/10/23 04:55:53;;;;;;;;;3.67;2.00;;;;;20.32;69.26;-19750.16;4975773;28;45506;-71
2022/10/23 04:58:19;;;;;;;;;2.00;2.00;;;;;20.44;69.57;-19753.22;4993116;27;46850;-71
2022/10/23 05:00:45;;;;;;;;;1.33;1.33;;;;;20.22;70.09;-19747.59;4975408;28;47865;-71
2022/10/23 05:03:11;;;;;;;;;3.00;3.00;;;;;20.35;69.74;-19750.81;4994103;27;45440;-76
2022/10/23 05:05:36;;;;;;;;;2.33;1.33;;;;;20.42;71.14;-19752.69;4994918;27;45484;-75
2022/10/23 05:08:01;;;;;;;;;2.00;2.00;;;;;20.34;70.82;-19750.69;4979900;28;45450;-75
2022/10/23 05:10:27;;;;;;;;;1.00;1.00;;;;;20.48;71.35;-19754.28;4993772;27;45642;-75
2022/10/23 05:12:52;;;;;;;;;3.00;2.00;;;;;20.44;70.83;-19753.34;5001886;28;45492;-76
2022/10/23 05:15:17;;;;;;;;;2.67;2.67;;;;;20.50;70.90;-19754.69;4992742;27;45431;-76
2022/10/23 05:17:45;;;;;;;;;3.00;3.00;;;;;20.15;71.60;-19745.63;4995216;27;45459;-76
2022/10/23 05:20:17;;;;;;;;;2.00;2.00;;;;;20.51;71.21;-19755.06;5006645;27;46269;-76
2022/10/23 05:22:44;;;;;;;;;4.00;2.67;;;;;20.50;71.92;-19754.81;5002879;28;45472;-76
2022/10/23 05:25:11;;;;;;;;;3.00;3.00;;;;;20.53;71.71;-19755.59;4973671;28;45588;-76
2022/10/23 05:27:36;;;;;;;;;3.00;2.00;;;;;20.54;71.89;-19755.75;4975187;28;46764;-76
2022/10/23 05:30:03;;;;;;;;;1.67;1.67;;;;;20.47;71.00;-19754.00;4998848;27;46055;-76
2022/10/23 05:32:31;;;;;;;;;2.00;2.00;;;;;20.52;71.26;-19755.22;4996202;28;46562;-76
2022/10/23 05:34:58;;;;;;;;;4.33;2.00;;;;;20.59;70.83;-19757.09;4990477;27;45442;-76
2022/10/23 05:37:24;;;;;;;;;2.67;2.00;;;;;20.54;71.80;-19755.75;4993070;28;45545;-75
2022/10/23 05:39:49;;;;;;;;;3.00;3.00;;;;;20.58;71.86;-19756.94;5004744;28;46693;-75
2022/10/23 05:42:14;;;;;;;;;5.00;3.00;;;;;20.64;72.59;-19758.41;4990124;27;45655;-75
2022/10/23 05:44:40;;;;;;;;;5.00;3.00;;;;;20.34;72.11;-19750.53;4962994;28;45465;-76
2022/10/23 05:47:06;;;;;;;;;2.00;1.00;;;;;20.66;71.72;-19759.06;4979548;28;45402;-76
2022/10/23 05:49:31;;;;;;;;;2.33;2.33;;;;;20.66;71.58;-19758.94;5000806;27;45578;-76
2022/10/23 05:51:57;;;;;;;;;2.00;2.00;;;;;20.63;70.92;-19758.28;5028006;27;45645;-75
2022/10/23 05:54:22;;;;;;;;;2.00;2.00;;;;;20.64;71.42;-19758.41;5013175;27;45477;-76
2022/10/23 05:56:47;;;;;;;;;3.00;3.00;;;;;20.63;70.76;-19758.16;5032947;27;45333;-75
2022/10/23 05:59:13;;;;;;;;;2.33;2.33;;;;;20.66;71.32;-19758.94;5000203;27;47288;-76
2022/10/23 06:01:38;;;;;;;;;6.00;3.00;;;;;20.56;71.59;-19756.28;5001455;27;45754;-76
2022/10/23 06:04:04;;;;;;;;;2.67;2.67;;;;;20.65;71.33;-19758.69;4961339;28;45534;-72
2022/10/23 06:06:30;;;;;;;;;3.67;3.00;;;;;20.66;71.17;-19759.06;5002152;27;45750;-71
2022/10/23 06:08:55;;;;;;;;;2.33;2.33;;;;;20.68;70.88;-19759.34;4995146;27;45482;-72
2022/10/23 06:11:21;;;;;;;;;3.67;3.67;;;;;20.43;71.15;-19752.94;4994965;27;45452;-72
2022/10/23 06:13:47;;;;;;;;;5.00;2.00;;;;;20.68;71.25;-19759.34;4996390;27;45516;-71
2022/10/23 06:16:15;;;;;;;;;3.00;3.00;;;;;20.69;71.73;-19759.63;5000983;27;47069;-71
2022/10/23 06:18:41;;;;;;;;;3.00;3.00;;;;;20.27;71.45;-19748.69;4981315;27;48503;-71
2022/10/23 06:21:07;;;;;;;;;3.00;3.00;;;;;20.66;71.40;-19758.94;5006194;27;45380;-72
2022/10/23 06:23:34;;;;;;;;;3.33;3.00;;;;;20.58;70.55;-19756.81;5001396;27;45429;-72
2022/10/23 06:26:00;;;;;;;;;2.33;2.33;;;;;20.60;71.21;-19757.34;4996752;27;45436;-72
2022/10/23 06:28:26;;;;;;;;;3.00;3.00;;;;;20.61;71.17;-19757.63;4996014;27;47260;-72
2022/10/23 06:30:51;;;;;;;;;3.00;3.00;;;;;20.42;70.78;-19752.69;4995705;27;45410;-72
2022/10/23 06:33:17;;;;;;;;;3.00;3.00;;;;;20.61;70.79;-19757.63;4994138;27;45859;-72
2022/10/23 06:35:42;;;;;;;;;2.67;2.67;;;;;21.04;70.37;-19768.81;4978233;27;45602;-72
2022/10/23 06:38:09;;;;;;;;;4.00;4.00;;;;;21.13;69.51;-19771.06;4991214;27;46450;-72
2022/10/23 06:40:35;;;;;;;;;3.67;3.00;;;;;21.23;69.04;-19773.88;5002394;27;45638;-74
2022/10/23 06:43:01;;;;;;;;;3.00;3.00;;;;;21.23;69.04;-19773.72;4994266;27;45479;-79
2022/10/23 06:45:26;;;;;;;;;3.00;3.00;;;;;21.05;68.25;-19769.06;4992929;27;45474;-76
2022/10/23 06:47:52;;;;;;;;;3.00;3.00;;;;;21.24;68.65;-19774.13;4990871;27;46198;-73
2022/10/23 06:50:17;;;;;;;;;3.00;3.00;;;;;20.89;68.56;-19764.94;4985844;28;45584;-77
2022/10/23 06:52:43;;;;;;;;;6.67;3.67;;;;;21.27;68.52;-19774.94;4974748;28;45426;-75
2022/10/23 06:55:08;;;;;;;;;3.33;2.00;;;;;21.33;67.83;-19776.41;4992688;28;45454;-75
2022/10/23 06:57:34;;;;;;;;;2.00;2.00;;;;;21.24;68.74;-19774.13;4992165;28;46339;-76
2022/10/23 06:59:59;;;;;;;;;2.67;2.67;;;;;20.85;69.03;-19763.88;4998487;27;45875;-74
2022/10/23 07:02:25;;;;;;;;;3.00;3.00;;;;;20.53;70.54;-19755.59;4981905;28;45542;-74
2022/10/23 07:04:50;;;;;;;;;3.33;3.33;;;;;20.53;71.19;-19755.47;4978963;28;45853;-75
2022/10/23 07:07:15;;;;;;;;;5.67;4.00;;;;;20.42;71.42;-19752.81;5012419;27;45527;-76
2022/10/23 07:09:40;;;;;;;;;3.00;3.00;;;;;20.44;71.40;-19753.22;5059621;27;45475;-76
2022/10/23 07:12:07;;;;;;;;;4.00;2.00;;;;;20.29;71.25;-19749.34;5009187;27;45326;-75
2022/10/23 07:14:32;;;;;;;;;3.00;3.00;;;;;20.31;71.17;-19749.88;4999239;27;45595;-74
2022/10/23 07:16:58;;;;;;;;;4.00;3.67;;;;;20.37;71.05;-19751.34;4978901;27;47214;-76
2022/10/23 07:19:23;;;;;;;;;2.33;2.33;;;;;20.20;71.39;-19747.06;5008025;27;45678;-76
2022/10/23 07:21:49;;;;;;;;;3.67;3.67;;;;;20.27;71.76;-19748.69;5006757;27;45364;-76
2022/10/23 07:24:14;;;;;;;;;3.00;3.00;;;;;20.23;72.30;-19747.88;5000708;27;45508;-75
2022/10/23 07:26:40;;;;;;;;;2.33;2.00;;;;;20.15;71.92;-19745.75;4998019;27;46568;-76
2022/10/23 07:29:06;;;;;;;;;3.67;3.67;;;;;20.13;72.08;-19745.06;4980138;28;45558;-76
2022/10/23 07:31:32;;;;;;;;;4.00;3.00;;;;;20.23;71.79;-19747.88;4996567;27;45548;-76
2022/10/23 07:33:58;;;;;;;;;3.67;2.67;;;;;20.33;72.05;-19750.28;4993849;27;45600;-76
2022/10/23 07:36:23;;;;;;;;;3.33;3.33;;;;;20.37;71.66;-19751.47;4996579;27;45929;-76
2022/10/23 07:38:49;;;;;;;;;5.00;4.00;;;;;20.44;70.84;-19753.22;4996544;27;45460;-77
2022/10/23 07:41:15;;;;;;;;;4.00;4.00;;;;;20.43;70.80;-19752.94;4998674;28;45560;-76
2022/10/23 07:43:40;;;;;;;;;4.33;4.00;;;;;20.44;70.96;-19753.22;5001048;27;45563;-76
2022/10/23 07:46:08;;;;;;;;;3.00;3.00;;;;;20.15;71.58;-19745.75;5000830;27;45484;-75
2022/10/23 07:48:34;;;;;;;;;5.00;5.00;;;;;20.24;71.54;-19748.16;4981389;28;45493;-75
2022/10/23 07:51:06;;;;;;;;;3.67;3.00;;;;;20.39;71.37;-19752.00;4997122;27;46706;-75
2022/10/23 07:53:32;;;;;;;;;4.33;4.33;;;;;20.43;70.71;-19752.94;5000404;27;45536;-76
2022/10/23 07:56:00;;;;;;;;;3.00;3.00;;;;;20.47;70.77;-19753.88;4994283;27;46987;-77
2022/10/23 07:58:27;;;;;;;;;6.67;5.00;;;;;20.22;70.92;-19747.59;4993292;27;45651;-77
2022/10/23 08:00:58;;;;;;;;;4.33;4.33;;;;;20.34;71.61;-19750.53;4984743;28;45361;-80
2022/10/23 08:03:29;;;;;;;;;4.33;4.33;;;;;20.23;71.71;-19747.88;5003983;27;45430;-75
2022/10/23 08:05:55;;;;;;;;;4.00;4.00;;;;;20.35;71.59;-19750.94;4993007;28;45548;-75
2022/10/23 08:08:21;;;;;;;;;3.33;3.33;;;;;20.53;70.49;-19755.47;4975883;27;45402;-75
2022/10/23 08:10:49;;;;;;;;;3.00;3.00;;;;;20.58;70.45;-19756.94;4972922;28;45489;-75
2022/10/23 08:13:15;;;;;;;;;6.33;4.67;;;;;20.55;70.06;-19756.00;4994631;27;45394;-75
2022/10/23 08:15:42;;;;;;;;;3.00;3.00;;;;;20.57;70.41;-19756.69;4993588;27;45325;-75
2022/10/23 08:18:08;;;;;;;;;5.33;3.67;;;;;20.34;70.77;-19750.69;4978094;28;45332;-74
2022/10/23 08:20:52;;;;;;;;;3.67;3.00;;;;;20.13;71.00;-19745.22;5006310;27;45363;-75
2022/10/23 08:23:18;;;;;;;;;3.00;3.00;;;;;20.30;70.76;-19749.47;4994997;27;45329;-75
2022/10/23 08:25:44;;;;;;;;;0.33;0.33;;;;;20.44;70.62;-19753.34;4994787;27;45415;-73
2022/10/23 08:28:10;;;;;;;;;3.67;3.67;;;;;20.45;70.85;-19753.47;4993175;28;45845;-74
2022/10/23 08:30:36;;;;;;;;;2.00;2.00;;;;;20.55;70.67;-19756.13;4994843;27;45425;-73
2022/10/23 08:33:06;;;;;;;;;5.00;4.00;;;;;20.33;70.17;-19750.41;4994694;27;45309;-75
2022/10/23 08:35:38;;;;;;;;;5.00;3.67;;;;;20.50;69.90;-19754.81;4994175;27;45484;-76
2022/10/23 08:38:04;;;;;;;;;5.00;4.00;;;;;20.69;70.13;-19759.63;5000236;28;45445;-76
2022/10/23 08:40:29;;;;;;;;;4.00;3.00;;;;;20.76;69.59;-19761.47;4994139;27;45621;-74
2022/10/23 08:43:05;;;;;;;;;5.33;4.33;;;;;20.80;69.97;-19762.69;4990590;27;45456;-74
2022/10/23 08:45:55;;;;;;;;;3.33;2.00;;;;;20.85;69.82;-19763.88;4996242;27;46213;-79
2022/10/23 08:48:27;;;;;;;;;3.67;3.00;;;;;20.86;69.50;-19764.28;4997679;27;45496;-81
2022/10/23 08:51:03;;;;;;;;;5.00;3.67;;;;;21.01;68.65;-19768.00;4974333;27;45455;-81
2022/10/23 08:53:40;;;;;;;;;5.00;5.00;;;;;21.06;68.32;-19769.47;4986252;28;45504;-82
2022/10/23 08:56:16;;;;;;;;;4.33;3.00;;;;;21.16;67.96;-19771.88;4971991;28;45674;-81
2022/10/23 08:58:54;;;;;;;;;4.67;3.00;;;;;20.66;68.13;-19759.06;4978456;27;45401;-80
2022/10/23 09:01:45;;;;;;;;;2.00;2.00;;;;;20.92;68.36;-19765.59;4983098;27;45451;-82
2022/10/23 09:04:12;;;;;;;;;4.00;2.33;;;;;21.09;68.23;-19770.13;4991370;28;45377;-74
2022/10/23 09:06:43;;;;;;;;;3.00;3.00;;;;;21.24;67.72;-19774.00;4991150;27;45769;-73
2022/10/23 09:09:31;;;;;;;;;4.33;3.00;;;;;21.27;67.41;-19774.94;4998940;27;45740;-73
2022/10/23 09:12:18;;;;;;;;;3.00;3.00;;;;;21.23;67.54;-19773.72;4981956;27;45508;-74
2022/10/23 09:14:55;;;;;;;;;3.67;3.00;;;;;21.32;67.32;-19776.13;5012747;27;45510;-72
2022/10/23 09:17:27;;;;;;;;;4.00;3.00;;;;;21.36;66.83;-19777.19;4979992;27;47838;-72
2022/10/23 09:20:11;;;;;;;;;4.00;2.67;;;;;21.42;67.10;-19778.66;4999420;28;45423;-72
2022/10/23 09:22:37;;;;;;;;;3.00;3.00;;;;;21.40;66.39;-19778.13;5000959;27;45369;-73
2022/10/23 09:25:08;;;;;;;;;6.00;2.33;;;;;21.45;66.67;-19779.59;5002333;27;45655;-73
2022/10/23 09:27:33;;;;;;;;;2.00;2.00;;;;;21.58;66.21;-19782.91;4982818;27;45583;-73
2022/10/23 09:29:58;;;;;;;;;3.00;3.00;;;;;21.61;66.52;-19783.72;4987539;27;45618;-74
2022/10/23 09:32:37;;;;;;;;;3.33;3.33;;;;;21.50;66.43;-19780.78;4988978;27;46099;-74
2022/10/23 09:35:04;;;;;;;;;2.33;2.00;;;;;21.75;66.41;-19787.19;4989975;27;45501;-73
2022/10/23 09:37:34;;;;;;;;;3.00;1.67;;;;;21.80;65.79;-19788.66;4999027;27;46577;-73
2022/10/23 09:40:16;;;;;;;;;2.33;2.33;;;;;21.84;65.22;-19789.56;4990785;28;46005;-73
2022/10/23 09:42:52;;;;;;;;;2.00;2.00;;;;;21.95;65.26;-19792.38;4994444;27;45525;-73
2022/10/23 09:45:27;;;;;;;;;2.33;2.33;;;;;21.87;64.44;-19790.50;4993337;27;45476;-75
2022/10/23 09:48:04;;;;;;;;;3.33;3.00;;;;;22.06;64.55;-19795.44;4990264;27;45488;-74
2022/10/23 09:50:30;;;;;;;;;2.33;2.33;;;;;22.09;64.74;-19796.22;4993852;27;45429;-72
2022/10/23 09:52:56;;;;;;;;;4.00;2.33;;;;;22.17;64.57;-19798.09;5005544;27;45546;-72
2022/10/23 09:55:24;;;;;;;;;4.00;3.00;;;;;22.26;64.07;-19800.63;5000373;27;45503;-74
2022/10/23 09:57:51;;;;;;;;;5.00;3.33;;;;;22.37;64.00;-19803.28;4989845;27;45499;-74
2022/10/23 10:00:23;;;;;;;;;3.00;3.00;;;;;22.48;63.70;-19806.34;4994248;27;45319;-73
2022/10/23 10:03:06;;;;;;;;;4.67;3.00;;;;;22.75;63.58;-19813.38;4974140;28;45472;-73
2022/10/23 10:05:34;;;;;;;;;2.00;2.00;;;;;22.68;62.56;-19811.53;4984756;27;45410;-74
2022/10/23 10:08:12;;;;;;;;;5.00;3.00;;;;;22.97;62.45;-19818.97;4993622;27;47710;-74
2022/10/23 10:10:54;;;;;;;;;4.67;3.00;;;;;22.85;62.11;-19815.78;4996176;28;45570;-73
2022/10/23 10:13:32;;;;;;;;;2.33;2.33;;;;;23.13;62.01;-19823.22;4995175;27;45473;-74
2022/10/23 10:16:05;;;;;;;;;2.25;2.00;;;;;23.22;60.64;-19825.34;4996885;27;45516;-75
2022/10/23 10:18:49;;;;;;;;;4.00;2.33;;;;;23.13;61.03;-19823.09;4985665;27;46737;-72
2022/10/23 10:21:22;;;;;;;;;3.00;3.00;;;;;23.38;60.86;-19829.59;4994263;27;45451;-74
2022/10/23 10:24:34;;;;;;;;;3.33;3.00;;;;;23.45;60.25;-19831.44;4991799;27;45477;-74
2022/10/23 10:27:17;;;;;;;;;2.00;2.00;;;;;23.50;60.32;-19832.78;5036050;28;45402;-74
2022/10/23 10:30:00;;;;;;;;;2.33;2.33;;;;;23.33;60.71;-19828.25;5019927;28;46380;-74
2022/10/23 10:32:26;;;;;;;;;1.67;1.67;;;;;23.38;60.46;-19829.72;5036335;28;45525;-74
2022/10/23 10:35:18;;;;;;;;;3.00;2.00;;;;;23.64;59.56;-19836.34;5035927;28;45586;-76
2022/10/23 10:38:03;;;;;;;;;2.00;2.00;;;;;23.44;59.23;-19831.06;5034742;28;45617;-75
2022/10/23 10:40:40;;;;;;;;;3.33;3.00;;;;;23.83;59.29;-19841.13;5025536;28;45957;-76
2022/10/23 10:43:05;;;;;;;;;3.00;3.00;;;;;23.85;58.86;-19841.81;5037391;28;45482;-75
2022/10/23 10:45:47;;;;;;;;;2.33;2.33;;;;;23.95;59.02;-19844.31;5034065;28;45486;-75
2022/10/23 10:48:39;;;;;;;;;1.00;1.00;;;;;23.91;58.53;-19843.25;5012327;28;45669;-74
2022/10/23 10:51:31;;;;;;;;;2.00;2.00;;;;;23.78;58.73;-19839.94;5037822;28;46144;-75
2022/10/23 10:54:20;;;;;;;;;5.00;2.00;;;;;23.90;58.61;-19843.00;5039980;28;45517;-75
2022/10/23 10:56:46;;;;;;;;;3.00;3.00;;;;;24.00;58.32;-19845.66;5050260;27;45513;-74
2022/10/23 10:59:30;;;;;;;;;3.00;3.00;;;;;23.83;58.95;-19841.13;5024536;27;45531;-75
2022/10/23 11:02:17;;;;;;;;;5.67;4.00;;;;;23.72;58.86;-19838.47;5034870;27;47235;-75
2022/10/23 11:05:02;;;;;;;;;2.00;2.00;;;;;23.88;58.62;-19842.59;5000698;28;45402;-75
2022/10/23 11:07:36;;;;;;;;;2.00;1.67;;;;;23.88;58.52;-19842.59;5049965;27;45451;-75
2022/10/23 11:10:05;;;;;;;;;3.00;3.00;;;;;24.13;58.42;-19848.97;5022843;27;45452;-75
2022/10/23 11:12:31;;;;;;;;;2.00;2.00;;;;;24.25;57.87;-19852.16;5034989;27;46451;-75
2022/10/23 11:14:56;;;;;;;;;3.00;2.00;;;;;24.36;57.21;-19854.94;5012674;27;45770;-75
2022/10/23 11:17:33;;;;;;;;;2.67;2.00;;;;;24.60;57.01;-19861.16;5003804;27;45459;-74
2022/10/23 11:20:14;;;;;;;;;2.00;2.00;;;;;26.69;54.24;-19915.31;4982178;28;45523;-75
2022/10/23 11:22:54;;;;;;;;;3.00;3.00;;;;;28.02;49.97;-19949.38;5001456;27;47349;-75
2022/10/23 11:25:23;;;;;;;;;3.00;3.00;;;;;27.76;49.21;-19942.78;4983879;27;45550;-74
2022/10/23 11:28:00;;;;;;;;;1.67;1.67;;;;;26.90;50.40;-19920.59;4977744;28;45499;-75
2022/10/23 11:30:40;;;;;;;;;3.00;1.00;;;;;26.64;51.13;-19914.00;4987284;27;45551;-75
2022/10/23 11:33:49;;;;;;;;;1.00;1.00;;;;;26.44;51.70;-19908.84;4997242;27;47927;-75
2022/10/23 11:36:19;;;;;;;;;3.33;2.00;;;;;26.20;52.14;-19902.47;4987793;28;45460;-75
2022/10/23 11:38:52;;;;;;;;;3.00;2.00;;;;;25.93;52.51;-19895.59;4997609;27;46588;-75
2022/10/23 11:41:32;;;;;;;;;2.00;2.00;;;;;25.86;53.02;-19893.75;4987659;28;45334;-75